Time;durP1;ratioP1;P1;durP2;ratioP2;P2;SDS_P1;SDS_P2;PMS_P1;PMS_P2;Temp;Humidity;BMP_temperature;BMP_pressure;BME280_temperature;BME280_humidity;BME280_pressure;Samples;Min_cycle;Max_cycle;Signal;HPM_P1;HPM_P2
2022/06/22 00:02:12;;;;;;;2.30;2.03;;;16.80;99.90;;;;;;5032608;28;20425;-68
2022/06/22 00:04:46;;;;;;;2.53;2.33;;;16.80;99.90;;;;;;5015787;28;20423;-69
2022/06/22 00:07:17;;;;;;;6.73;3.00;;;16.80;99.90;;;;;;5015745;28;20446;-69
2022/06/22 00:09:44;;;;;;;4.93;3.10;;;16.70;99.90;;;;;;5012406;28;20736;-69
2022/06/22 00:12:23;;;;;;;7.03;4.03;;;16.70;99.90;;;;;;5012094;28;20416;-69
2022/06/22 00:14:52;;;;;;;5.23;3.83;;;16.60;99.90;;;;;;5011069;28;20411;-69
2022/06/22 00:17:30;;;;;;;3.30;2.77;;;16.50;99.90;;;;;;5012284;28;20452;-69
2022/06/22 00:20:18;;;;;;;2.00;1.70;;;16.50;99.90;;;;;;5012763;28;20779;-69
2022/06/22 00:22:54;;;;;;;3.53;1.93;;;16.50;99.90;;;;;;5013299;28;20936;-69
2022/06/22 00:25:32;;;;;;;3.67;2.73;;;16.50;99.90;;;;;;5013371;28;20417;-69
2022/06/22 00:28:25;;;;;;;2.37;1.57;;;16.40;99.90;;;;;;5013057;28;20821;-69
2022/06/22 00:31:20;;;;;;;4.13;2.13;;;16.40;99.90;;;;;;5013048;28;20416;-69
2022/06/22 00:34:09;;;;;;;1.90;1.43;;;16.30;99.90;;;;;;5012417;28;20463;-69
2022/06/22 00:36:40;;;;;;;1.67;1.57;;;16.30;99.90;;;;;;5012034;28;20407;-69
2022/06/22 00:39:27;;;;;;;2.40;1.63;;;16.30;99.90;;;;;;5012299;28;20451;-69
2022/06/22 00:41:56;;;;;;;2.50;1.60;;;16.30;99.90;;;;;;5012245;28;20767;-69
2022/06/22 00:44:25;;;;;;;2.23;1.90;;;16.40;99.90;;;;;;5011987;28;20450;-69
2022/06/22 00:47:04;;;;;;;3.20;1.73;;;16.40;99.90;;;;;;5011607;28;20462;-69
2022/06/22 00:49:30;;;;;;;2.30;1.57;;;16.30;99.90;;;;;;5012125;28;20484;-68
2022/06/22 00:52:00;;;;;;;2.10;1.90;;;16.40;99.90;;;;;;5012069;28;20724;-69
2022/06/22 00:54:28;;;;;;;1.30;1.20;;;16.40;99.90;;;;;;5011824;28;20501;-69
2022/06/22 00:56:58;;;;;;;1.27;1.17;;;16.40;99.90;;;;;;5012716;28;20438;-69
2022/06/22 00:59:30;;;;;;;1.90;1.47;;;16.40;99.90;;;;;;5011786;28;20487;-69
2022/06/22 01:02:04;;;;;;;2.13;1.50;;;16.50;99.90;;;;;;5011568;28;20757;-69
2022/06/22 01:04:52;;;;;;;1.30;1.20;;;16.60;99.90;;;;;;5012213;28;20537;-70
2022/06/22 01:07:27;;;;;;;2.63;1.60;;;16.60;99.90;;;;;;5013045;28;20465;-69
2022/06/22 01:09:55;;;;;;;2.13;1.00;;;16.60;99.90;;;;;;5016360;28;20438;-69
2022/06/22 01:12:36;;;;;;;0.97;0.90;;;16.60;99.90;;;;;;5013965;28;20490;-69
2022/06/22 01:15:21;;;;;;;0.90;0.80;;;16.60;99.90;;;;;;5011332;28;20492;-69
2022/06/22 01:18:07;;;;;;;1.70;1.30;;;16.50;99.90;;;;;;5011549;28;20443;-69
2022/06/22 01:20:51;;;;;;;3.33;1.40;;;16.50;99.90;;;;;;5011603;28;20470;-72
2022/06/22 01:23:35;;;;;;;1.27;1.17;;;16.50;99.90;;;;;;5011575;28;20550;-68
2022/06/22 01:26:28;;;;;;;1.50;1.30;;;16.50;99.90;;;;;;5013753;28;20395;-69
2022/06/22 01:28:58;;;;;;;4.27;1.40;;;16.40;99.90;;;;;;5013667;28;20407;-70
2022/06/22 01:31:24;;;;;;;1.83;1.20;;;16.40;99.90;;;;;;5016189;28;20729;-69
2022/06/22 01:33:51;;;;;;;1.33;1.23;;;16.40;99.90;;;;;;5016383;28;20423;-69
2022/06/22 01:36:29;;;;;;;1.30;1.10;;;16.40;99.90;;;;;;5014967;28;20324;-69
2022/06/22 01:38:54;;;;;;;2.07;1.30;;;16.30;99.90;;;;;;5016368;28;20435;-69
2022/06/22 01:41:47;;;;;;;1.43;1.07;;;16.30;99.90;;;;;;5016045;28;20434;-70
2022/06/22 01:44:22;;;;;;;3.33;1.37;;;16.20;99.90;;;;;;5016539;28;20699;-70
2022/06/22 01:46:50;;;;;;;2.20;1.20;;;16.20;99.90;;;;;;5016721;28;20451;-69
2022/06/22 01:49:19;;;;;;;1.63;1.10;;;16.20;99.90;;;;;;5018309;28;20427;-69
2022/06/22 01:51:51;;;;;;;1.40;1.30;;;16.10;99.90;;;;;;5020375;28;20857;-69
2022/06/22 01:54:25;;;;;;;1.43;1.20;;;16.10;99.90;;;;;;5021557;28;20478;-68
2022/06/22 01:57:03;;;;;;;2.67;1.37;;;16.00;99.90;;;;;;5014671;28;20469;-69
2022/06/22 01:59:46;;;;;;;1.63;1.40;;;16.00;99.90;;;;;;5014123;28;20898;-69
2022/06/22 02:02:21;;;;;;;1.20;1.10;;;15.90;99.90;;;;;;5014648;28;20451;-69
2022/06/22 02:04:55;;;;;;;1.27;1.17;;;15.90;99.90;;;;;;5014282;28;20956;-69
2022/06/22 02:07:44;;;;;;;1.67;1.20;;;15.90;99.90;;;;;;5014593;28;20423;-69
2022/06/22 02:10:37;;;;;;;2.10;1.37;;;15.90;99.90;;;;;;5014541;28;20828;-69
2022/06/22 02:13:15;;;;;;;1.93;1.33;;;15.80;99.90;;;;;;5014743;28;20465;-69
2022/06/22 02:16:00;;;;;;;1.47;1.10;;;15.80;99.90;;;;;;5014780;28;20407;-69
2022/06/22 02:18:35;;;;;;;1.30;1.20;;;15.70;99.90;;;;;;5014470;28;20501;-70
2022/06/22 02:21:16;;;;;;;1.47;1.37;;;15.60;99.90;;;;;;5014821;28;20482;-68
2022/06/22 02:23:43;;;;;;;1.60;1.40;;;15.60;99.90;;;;;;5015468;28;20498;-69
2022/06/22 02:26:24;;;;;;;2.33;1.57;;;15.70;99.90;;;;;;5015573;28;20411;-69
2022/06/22 02:28:50;;;;;;;2.17;1.60;;;15.50;99.90;;;;;;5015215;28;20417;-69
2022/06/22 02:31:19;;;;;;;2.27;1.53;;;15.50;99.90;;;;;;5015523;28;20419;-70
2022/06/22 02:33:48;;;;;;;1.93;1.23;;;15.50;99.90;;;;;;5015707;28;20561;-69
2022/06/22 02:36:14;;;;;;;1.60;1.50;;;15.50;99.90;;;;;;5014772;28;20400;-69
2022/06/22 02:38:44;;;;;;;1.60;1.50;;;15.50;99.90;;;;;;5015316;28;20486;-70
2022/06/22 02:46:40;;;;;;;1.77;1.67;;;15.40;99.90;;;;;;5014639;28;20410;-70
2022/06/22 02:49:14;;;;;;;2.80;1.70;;;15.40;99.90;;;;;;5014367;28;20415;-69
2022/06/22 02:51:43;;;;;;;2.23;1.43;;;15.40;99.90;;;;;;5013923;28;20494;-68
2022/06/22 02:54:27;;;;;;;2.30;2.10;;;15.30;99.90;;;;;;5013816;28;20533;-69
2022/06/22 02:57:05;;;;;;;1.87;1.77;;;15.30;99.90;;;;;;5012478;28;20535;-69
2022/06/22 02:59:31;;;;;;;2.97;1.47;;;15.20;99.90;;;;;;5013290;28;20822;-69
2022/06/22 03:01:58;;;;;;;1.80;1.70;;;15.20;99.90;;;;;;5013811;28;20952;-69
2022/06/22 03:04:24;;;;;;;1.67;1.57;;;15.20;99.90;;;;;;5014107;28;20489;-70
2022/06/22 03:06:53;;;;;;;1.77;1.67;;;15.20;99.90;;;;;;5014777;28;20777;-69
2022/06/22 03:09:19;;;;;;;2.23;1.23;;;15.20;99.90;;;;;;5013927;28;20187;-68
2022/06/22 03:11:51;;;;;;;2.30;1.50;;;15.20;99.90;;;;;;5013381;28;20494;-69
2022/06/22 03:14:22;;;;;;;4.63;1.70;;;15.20;99.90;;;;;;5013413;28;20470;-68
2022/06/22 03:17:03;;;;;;;2.77;1.60;;;15.30;99.90;;;;;;5013296;28;20403;-68
2022/06/22 03:19:54;;;;;;;1.70;1.30;;;15.30;99.90;;;;;;5013038;28;20459;-69
2022/06/22 03:22:24;;;;;;;2.30;1.77;;;15.30;99.90;;;;;;5013605;28;20454;-69
2022/06/22 03:24:58;;;;;;;1.50;1.40;;;15.40;99.90;;;;;;5013887;28;20407;-68
2022/06/22 03:27:29;;;;;;;2.53;2.03;;;15.40;99.90;;;;;;5013935;28;20495;-68
2022/06/22 03:29:59;;;;;;;2.73;1.90;;;15.40;99.90;;;;;;5014474;28;20890;-69
2022/06/22 03:32:37;;;;;;;1.93;1.73;;;15.50;99.90;;;;;;5014346;28;20399;-69
2022/06/22 03:35:09;;;;;;;1.50;1.40;;;15.50;99.90;;;;;;5014175;28;21006;-70
2022/06/22 03:37:51;;;;;;;3.07;1.63;;;15.50;99.90;;;;;;5014329;28;20458;-69
2022/06/22 03:40:24;;;;;;;1.90;1.50;;;15.60;99.90;;;;;;5018579;28;20453;-69
2022/06/22 03:42:54;;;;;;;1.50;1.30;;;15.70;99.90;;;;;;5015012;28;20442;-69
2022/06/22 03:45:32;;;;;;;2.73;1.90;;;15.70;99.90;;;;;;5012546;28;20407;-69
2022/06/22 03:48:19;;;;;;;1.60;1.50;;;15.80;99.90;;;;;;5013024;28;20434;-69
2022/06/22 03:50:51;;;;;;;2.50;1.90;;;15.80;99.90;;;;;;5012846;28;20409;-69
2022/06/22 03:53:30;;;;;;;4.03;1.90;;;15.90;99.90;;;;;;5012452;28;20586;-69
2022/06/22 03:56:04;;;;;;;2.90;1.70;;;16.00;99.90;;;;;;5013045;28;20430;-69
2022/06/22 03:58:29;;;;;;;2.07;1.60;;;16.00;99.90;;;;;;5012640;28;20529;-69
2022/06/22 04:00:55;;;;;;;1.53;1.40;;;16.10;99.90;;;;;;5012786;28;20479;-69
2022/06/22 04:03:21;;;;;;;1.40;1.30;;;16.20;99.90;;;;;;5012690;28;20184;-70
2022/06/22 04:05:54;;;;;;;3.70;2.00;;;16.30;99.90;;;;;;5012634;28;20176;-69
2022/06/22 04:08:39;;;;;;;1.30;1.20;;;16.30;99.90;;;;;;5012555;28;20169;-67
2022/06/22 04:11:24;;;;;;;2.33;1.53;;;16.30;99.90;;;;;;5012315;28;20401;-68
2022/06/22 04:13:59;;;;;;;1.90;1.77;;;16.50;99.90;;;;;;5012472;28;20770;-70
2022/06/22 04:16:38;;;;;;;1.67;1.57;;;16.80;99.90;;;;;;5012151;28;20510;-69
2022/06/22 04:19:18;;;;;;;3.53;1.63;;;18.10;99.90;;;;;;5012426;28;20989;-70
2022/06/22 04:21:49;;;;;;;2.10;1.33;;;19.40;99.90;;;;;;5012227;28;20397;-68
2022/06/22 04:24:26;;;;;;;6.10;2.70;;;20.70;99.90;;;;;;5012231;28;20430;-69
2022/06/22 04:26:55;;;;;;;1.53;1.43;;;21.30;99.90;;;;;;5012279;28;20392;-69
2022/06/22 04:29:38;;;;;;;3.23;1.93;;;21.70;99.90;;;;;;5012969;28;21028;-69
2022/06/22 04:32:49;;;;;;;1.70;1.60;;;21.90;99.90;;;;;;5012567;28;20821;-69
2022/06/22 04:35:24;;;;;;;2.00;1.80;;;22.20;99.90;;;;;;4969082;28;20415;-69
2022/06/22 04:37:59;;;;;;;3.33;2.30;;;22.30;99.90;;;;;;5011733;28;20451;-69
2022/06/22 04:40:35;;;;;;;1.83;1.67;;;22.20;99.90;;;;;;5012007;28;20406;-69
2022/06/22 04:43:03;;;;;;;1.63;1.53;;;22.30;99.90;;;;;;5011743;28;20420;-69
2022/06/22 04:45:38;;;;;;;2.70;1.70;;;22.30;99.60;;;;;;5012048;28;20410;-69
2022/06/22 04:48:15;;;;;;;4.60;1.60;;;22.50;99.20;;;;;;5012255;28;20900;-69
2022/06/22 04:50:44;;;;;;;2.10;1.47;;;22.40;99.20;;;;;;5012305;28;20485;-69
2022/06/22 04:53:36;;;;;;;2.37;2.17;;;22.20;98.80;;;;;;5012072;28;20454;-69
2022/06/22 04:56:06;;;;;;;1.90;1.80;;;22.00;99.10;;;;;;5011859;28;20463;-69
2022/06/22 04:58:33;;;;;;;1.53;1.40;;;22.10;99.00;;;;;;5012118;28;20538;-69
2022/06/22 05:01:00;;;;;;;2.77;1.87;;;22.50;98.80;;;;;;5014581;28;20473;-69
2022/06/22 05:03:28;;;;;;;1.90;1.70;;;21.40;99.40;;;;;;5017195;28;20426;-68
2022/06/22 05:05:56;;;;;;;4.20;1.77;;;21.20;99.90;;;;;;5018421;28;20476;-68
2022/06/22 05:08:27;;;;;;;2.20;1.93;;;21.60;99.80;;;;;;5016724;28;20926;-68
2022/06/22 05:10:59;;;;;;;2.60;1.70;;;22.00;99.80;;;;;;5015695;28;20394;-69
2022/06/22 05:13:28;;;;;;;2.07;1.87;;;22.20;99.00;;;;;;5015282;28;20426;-69
2022/06/22 05:15:56;;;;;;;2.37;2.17;;;22.50;99.10;;;;;;5015536;28;20407;-68
2022/06/22 05:18:25;;;;;;;2.80;1.70;;;22.70;98.30;;;;;;5015444;28;20451;-69
2022/06/22 05:21:00;;;;;;;4.10;2.00;;;22.80;98.10;;;;;;5016143;28;20929;-69
2022/06/22 05:23:29;;;;;;;2.37;1.90;;;22.80;98.20;;;;;;5016210;28;20422;-70
2022/06/22 05:25:57;;;;;;;2.20;2.00;;;23.50;97.10;;;;;;5017000;28;20533;-70
2022/06/22 05:28:40;;;;;;;2.33;1.50;;;23.00;97.50;;;;;;5019235;28;20414;-69
2022/06/22 05:31:17;;;;;;;4.90;2.33;;;23.50;97.40;;;;;;5015387;28;20418;-68
2022/06/22 05:33:49;;;;;;;2.17;1.80;;;23.70;96.80;;;;;;5015146;28;20921;-68
2022/06/22 05:36:19;;;;;;;1.70;1.60;;;23.90;96.20;;;;;;5015619;28;20395;-68
2022/06/22 05:38:47;;;;;;;2.90;2.10;;;24.20;95.90;;;;;;5015577;28;20858;-69
2022/06/22 05:41:16;;;;;;;2.60;1.80;;;25.00;94.80;;;;;;5015488;28;20453;-69
2022/06/22 05:43:42;;;;;;;1.73;1.63;;;24.90;94.00;;;;;;5015728;28;20461;-69
2022/06/22 05:46:10;;;;;;;2.97;1.80;;;24.70;93.80;;;;;;5016891;28;20921;-69
2022/06/22 05:48:42;;;;;;;2.47;1.33;;;24.90;93.70;;;;;;5018079;28;20317;-69
2022/06/22 05:51:25;;;;;;;2.00;1.57;;;25.40;93.60;;;;;;5017132;28;20434;-67
2022/06/22 05:53:53;;;;;;;3.83;1.80;;;25.50;92.70;;;;;;5056428;23;20499;-69
2022/06/22 05:56:29;;;;;;;3.43;3.13;;;25.40;92.10;;;;;;5054378;28;20767;-69
2022/06/22 05:59:31;;;;;;;2.83;1.60;;;25.70;91.80;;;;;;5054467;28;20448;-69
2022/06/22 06:02:20;;;;;;;2.37;1.73;;;26.20;90.60;;;;;;5054356;28;20448;-69
2022/06/22 06:04:54;;;;;;;2.20;1.97;;;25.80;90.30;;;;;;5053745;28;20415;-69
2022/06/22 06:07:40;;;;;;;2.03;1.60;;;26.10;89.00;;;;;;5053908;28;20492;-69
2022/06/22 06:10:16;;;;;;;4.40;1.67;;;26.00;89.40;;;;;;5053963;28;20872;-69
2022/06/22 06:12:54;;;;;;;4.13;1.60;;;26.40;87.70;;;;;;5053487;28;20738;-69
2022/06/22 06:15:20;;;;;;;1.90;1.80;;;27.50;84.00;;;;;;5053462;28;20400;-69
2022/06/22 06:17:50;;;;;;;1.93;1.77;;;26.80;83.80;;;;;;5035611;28;20453;-69
2022/06/22 06:20:26;;;;;;;2.23;1.90;;;25.90;86.00;;;;;;5053535;28;20330;-69
2022/06/22 06:22:58;;;;;;;5.70;1.60;;;26.50;85.80;;;;;;5053374;28;20404;-69
2022/06/22 06:28:33;;;;;;;3.30;1.60;;;27.40;83.40;;;;;;5053854;28;20781;-69
2022/06/22 06:31:06;;;;;;;3.30;1.50;;;27.10;83.80;;;;;;5053597;28;20515;-69
2022/06/22 06:33:37;;;;;;;2.90;1.37;;;27.60;83.10;;;;;;5053618;28;20429;-69
2022/06/22 06:36:11;;;;;;;3.00;1.90;;;27.20;82.70;;;;;;5053352;28;20742;-69
2022/06/22 06:38:41;;;;;;;2.30;1.80;;;26.20;83.90;;;;;;5053403;28;20440;-68
2022/06/22 06:42:03;;;;;;;1.43;1.33;;;26.70;85.30;;;;;;5053734;28;20989;-68
2022/06/22 06:44:41;;;;;;;2.77;1.43;;;27.40;81.40;;;;;;4952609;29;20445;-68
2022/06/22 06:47:14;;;;;;;2.90;1.97;;;27.70;77.70;;;;;;5048534;28;20474;-68
2022/06/22 06:49:47;;;;;;;2.37;1.27;;;27.00;80.60;;;;;;5053368;28;20494;-68
2022/06/22 06:52:44;;;;;;;1.37;1.23;;;28.50;76.00;;;;;;5052872;28;20401;-68
2022/06/22 06:55:16;;;;;;;1.10;0.90;;;29.40;67.60;;;;;;5052975;28;20453;-68
2022/06/22 06:57:56;;;;;;;2.10;1.20;;;30.00;66.80;;;;;;5052872;28;20491;-68
2022/06/22 07:00:21;;;;;;;1.80;1.17;;;28.10;69.00;;;;;;5053092;28;20941;-69
2022/06/22 07:02:47;;;;;;;3.10;1.30;;;28.00;67.90;;;;;;5052783;28;20484;-68
2022/06/22 07:05:18;;;;;;;2.80;1.47;;;28.30;66.40;;;;;;5052676;28;20586;-68
2022/06/22 07:07:54;;;;;;;1.30;0.90;;;29.50;63.60;;;;;;5052872;28;20159;-68
2022/06/22 07:10:36;;;;;;;1.77;1.40;;;29.60;65.20;;;;;;5052884;28;20520;-68
2022/06/22 07:13:13;;;;;;;1.43;1.20;;;29.80;65.60;;;;;;5052242;28;20432;-68
2022/06/22 07:15:41;;;;;;;1.90;1.13;;;27.70;63.60;;;;;;5052510;28;20535;-68
2022/06/22 07:18:24;;;;;;;1.90;1.00;;;29.10;64.90;;;;;;5052430;28;20440;-68
2022/06/22 07:21:01;;;;;;;2.77;1.20;;;28.60;61.90;;;;;;5052880;28;20892;-68
2022/06/22 07:23:38;;;;;;;2.40;1.53;;;29.50;59.90;;;;;;5051845;28;20431;-69
2022/06/22 07:26:37;;;;;;;2.70;1.37;;;30.40;59.00;;;;;;5052169;28;20767;-69
2022/06/22 07:29:22;;;;;;;1.80;1.40;;;29.90;58.10;;;;;;5052412;28;20402;-69
2022/06/22 07:31:59;;;;;;;1.93;1.00;;;29.70;62.30;;;;;;5052209;28;20409;-69
2022/06/22 07:34:34;;;;;;;1.53;1.07;;;30.60;58.90;;;;;;5052012;28;20511;-68
2022/06/22 07:37:29;;;;;;;1.20;1.07;;;31.30;56.80;;;;;;5052015;28;20404;-69
2022/06/22 07:40:07;;;;;;;1.17;1.07;;;29.10;58.00;;;;;;5047169;28;20440;-68
2022/06/22 07:42:33;;;;;;;1.47;1.00;;;29.70;59.30;;;;;;5052040;28;20512;-68
2022/06/22 07:44:59;;;;;;;1.10;1.00;;;30.50;57.80;;;;;;5051755;28;20750;-68
2022/06/22 07:47:36;;;;;;;1.53;1.10;;;29.80;59.60;;;;;;5051561;28;20175;-68
2022/06/22 07:50:19;;;;;;;1.50;1.03;;;30.50;60.00;;;;;;5052388;28;20249;-68
2022/06/22 07:52:55;;;;;;;1.60;1.20;;;29.40;58.10;;;;;;5051798;28;20408;-68
2022/06/22 07:55:56;;;;;;;1.27;1.00;;;29.50;59.30;;;;;;5051326;28;20412;-68
2022/06/22 07:58:35;;;;;;;1.47;1.07;;;30.50;56.70;;;;;;5019718;28;20590;-68
2022/06/22 08:01:25;;;;;;;2.07;0.90;;;29.20;59.50;;;;;;5051616;28;20965;-68
2022/06/22 08:03:59;;;;;;;2.50;1.33;;;31.50;54.20;;;;;;5051647;28;20423;-68
2022/06/22 08:06:40;;;;;;;1.43;1.00;;;29.50;56.00;;;;;;5051377;28;20767;-68
2022/06/22 08:09:13;;;;;;;1.73;1.30;;;28.40;57.60;;;;;;5051903;28;20405;-68
2022/06/22 08:11:49;;;;;;;3.90;1.50;;;29.60;56.20;;;;;;5051688;28;20409;-68
2022/06/22 08:14:28;;;;;;;4.30;1.77;;;29.00;58.00;;;;;;5051365;28;20487;-68
2022/06/22 08:16:58;;;;;;;1.03;0.90;;;28.80;57.40;;;;;;5051802;28;20437;-69
2022/06/22 08:19:27;;;;;;;5.13;1.00;;;28.70;58.40;;;;;;5051305;28;21036;-68
2022/06/22 08:21:58;;;;;;;1.20;1.10;;;30.20;56.90;;;;;;5051280;28;20413;-68
2022/06/22 08:24:24;;;;;;;1.43;1.10;;;30.00;55.50;;;;;;5051493;28;20432;-69
2022/06/22 08:26:54;;;;;;;3.10;0.93;;;28.60;57.00;;;;;;5051353;28;20501;-68
2022/06/22 08:29:25;;;;;;;2.70;1.10;;;29.10;57.30;;;;;;5033334;28;20444;-68
2022/06/22 08:32:18;;;;;;;0.97;0.90;;;29.20;57.20;;;;;;5051244;28;20413;-69
2022/06/22 08:34:50;;;;;;;1.30;1.20;;;30.50;54.10;;;;;;5050124;28;20425;-68
2022/06/22 08:37:24;;;;;;;1.70;1.10;;;28.20;56.40;;;;;;5051340;28;20415;-68
2022/06/22 08:40:16;;;;;;;2.13;1.30;;;29.50;57.00;;;;;;5051497;28;20413;-69
2022/06/22 08:42:58;;;;;;;2.53;1.20;;;30.00;54.30;;;;;;5050312;28;20924;-69
2022/06/22 08:45:44;;;;;;;2.40;1.07;;;28.80;56.90;;;;;;5050959;28;20782;-68
2022/06/22 08:48:35;;;;;;;1.80;0.90;;;29.50;55.70;;;;;;5051228;28;20499;-69
2022/06/22 08:51:13;;;;;;;1.37;1.20;;;30.80;53.30;;;;;;5051187;28;20508;-69
2022/06/22 08:54:23;;;;;;;1.17;1.07;;;30.90;53.90;;;;;;5050939;28;20556;-69
2022/06/22 08:57:03;;;;;;;1.40;1.20;;;31.10;54.60;;;;;;5050934;28;20417;-69
2022/06/22 08:59:42;;;;;;;2.13;0.90;;;31.20;53.50;;;;;;5050892;28;20806;-68
2022/06/22 09:02:26;;;;;;;1.97;1.87;;;30.60;52.60;;;;;;5050744;28;20409;-68
2022/06/22 09:05:23;;;;;;;1.13;0.90;;;30.40;54.40;;;;;;5050627;28;20452;-68
2022/06/22 09:08:19;;;;;;;1.27;1.00;;;30.40;50.70;;;;;;5050884;28;20453;-68
2022/06/22 09:11:02;;;;;;;2.13;1.27;;;30.20;51.80;;;;;;5050752;28;20756;-68
2022/06/22 09:13:43;;;;;;;2.03;1.33;;;29.00;53.50;;;;;;5050616;28;20562;-68
2022/06/22 09:16:26;;;;;;;2.23;0.90;;;29.40;52.20;;;;;;5050760;28;20401;-67
2022/06/22 09:19:08;;;;;;;2.60;1.30;;;29.30;54.00;;;;;;5050882;28;20401;-67
2022/06/22 09:21:33;;;;;;;2.00;1.00;;;28.50;53.40;;;;;;5051140;28;20758;-68
2022/06/22 09:24:21;;;;;;;1.27;1.10;;;28.40;53.10;;;;;;5050823;28;20435;-68
2022/06/22 09:26:53;;;;;;;0.70;0.70;;;29.00;53.70;;;;;;5050736;28;20185;-68
2022/06/22 09:29:50;;;;;;;2.00;1.20;;;29.60;50.90;;;;;;5050444;28;20495;-68
2022/06/22 09:32:18;;;;;;;1.30;1.10;;;29.20;51.90;;;;;;5050077;28;21043;-69
2022/06/22 09:35:12;;;;;;;1.30;1.00;;;30.00;48.90;;;;;;5050439;28;20939;-68
2022/06/22 09:38:08;;;;;;;1.93;1.83;;;30.60;48.10;;;;;;5050755;28;20448;-68
2022/06/22 09:40:45;;;;;;;1.70;1.10;;;31.90;46.20;;;;;;5051101;28;20505;-69
2022/06/22 09:43:36;;;;;;;0.80;0.70;;;29.90;48.60;;;;;;5050685;28;20918;-68
2022/06/22 09:46:08;;;;;;;1.13;0.80;;;29.70;50.00;;;;;;5051819;28;20441;-68
2022/06/22 09:48:45;;;;;;;1.00;0.90;;;29.70;48.20;;;;;;5054670;28;20976;-68
2022/06/22 09:51:20;;;;;;;1.67;0.97;;;29.10;45.40;;;;;;5054547;28;20911;-69
2022/06/22 09:53:51;;;;;;;3.20;1.20;;;30.00;48.40;;;;;;5054506;28;20833;-68
2022/06/22 09:56:33;;;;;;;1.10;1.00;;;28.80;51.30;;;;;;5054523;28;20504;-68
2022/06/22 09:59:30;;;;;;;1.83;0.90;;;29.50;50.90;;;;;;5054277;28;20840;-68
2022/06/22 10:02:02;;;;;;;2.80;1.10;;;28.90;51.90;;;;;;5054422;28;20401;-68
2022/06/22 10:05:09;;;;;;;1.60;0.97;;;28.50;53.00;;;;;;5054081;28;20866;-68
2022/06/22 10:07:56;;;;;;;2.23;1.37;;;28.00;52.70;;;;;;5054264;28;20777;-68
2022/06/22 10:10:40;;;;;;;1.87;1.10;;;28.20;54.60;;;;;;5054136;28;20401;-69
2022/06/22 10:13:27;;;;;;;3.13;1.53;;;28.30;55.60;;;;;;5053869;28;20422;-70
2022/06/22 10:16:26;;;;;;;0.80;0.80;;;27.90;53.20;;;;;;5053919;28;20966;-69
2022/06/22 10:19:03;;;;;;;1.90;1.43;;;28.00;54.90;;;;;;5054081;28;20505;-71
2022/06/22 10:21:55;;;;;;;1.30;0.90;;;28.50;53.20;;;;;;5054079;28;20895;-69
2022/06/22 10:24:33;;;;;;;1.33;1.23;;;27.80;53.40;;;;;;5053786;28;20428;-70
2022/06/22 10:27:24;;;;;;;2.30;1.27;;;27.60;54.40;;;;;;5053980;28;20950;-70
2022/06/22 10:29:55;;;;;;;1.20;1.10;;;28.10;54.10;;;;;;5009085;28;20859;-69
2022/06/22 10:32:38;;;;;;;1.17;1.07;;;27.80;54.70;;;;;;5053938;28;20406;-70
2022/06/22 10:35:22;;;;;;;1.50;1.40;;;27.30;54.10;;;;;;5053913;28;20500;-69
2022/06/22 10:38:19;;;;;;;1.80;0.90;;;27.90;54.20;;;;;;5053854;28;20455;-69
2022/06/22 10:47:38;;;;;;;2.40;1.00;;;27.00;55.20;;;;;;5053636;28;20698;-70
2022/06/22 10:50:03;;;;;;;1.57;1.20;;;26.90;54.60;;;;;;4937269;29;20437;-70
2022/06/22 10:52:36;;;;;;;1.50;0.90;;;27.40;53.50;;;;;;4953203;29;20407;-70
2022/06/22 10:55:07;;;;;;;1.73;1.10;;;26.90;53.80;;;;;;4986532;28;20259;-70
2022/06/22 10:58:04;;;;;;;2.40;2.13;;;26.90;52.50;;;;;;5052325;28;20437;-70
2022/06/22 11:00:39;;;;;;;1.30;1.20;;;26.70;53.40;;;;;;5053247;28;20399;-68
2022/06/22 11:03:41;;;;;;;2.07;1.87;;;26.70;53.80;;;;;;5053112;28;20428;-69
2022/06/22 11:06:46;;;;;;;1.40;1.00;;;26.90;55.10;;;;;;5053269;28;20505;-68
2022/06/22 11:09:24;;;;;;;3.37;1.30;;;27.20;53.80;;;;;;5031675;28;21207;-68
2022/06/22 11:11:58;;;;;;;0.97;0.97;;;26.80;53.90;;;;;;5052882;28;20416;-68
2022/06/22 11:14:45;;;;;;;1.60;1.40;;;26.70;54.30;;;;;;5052736;28;20935;-68
2022/06/22 11:17:19;;;;;;;1.10;1.00;;;26.90;56.30;;;;;;5052848;28;20422;-68
2022/06/22 11:20:01;;;;;;;2.93;2.70;;;26.90;54.60;;;;;;5052928;28;20397;-69
2022/06/22 11:22:36;;;;;;;1.33;1.10;;;26.50;55.30;;;;;;5052793;28;20400;-68
2022/06/22 11:25:06;;;;;;;1.33;1.17;;;26.50;55.80;;;;;;5052355;28;20421;-68
2022/06/22 11:31:00;;;;;;;1.23;1.13;;;26.10;54.20;;;;;;5052941;28;21010;-68
2022/06/22 11:33:40;;;;;;;2.37;1.00;;;26.10;54.10;;;;;;5052422;28;20416;-68
2022/06/22 11:36:36;;;;;;;3.60;1.20;;;26.50;55.40;;;;;;5052377;28;20425;-69
2022/06/22 11:39:20;;;;;;;1.17;1.00;;;26.70;54.00;;;;;;5052806;28;20448;-68
2022/06/22 11:42:04;;;;;;;1.83;1.20;;;27.10;54.20;;;;;;5052939;28;20817;-68
2022/06/22 11:47:49;;;;;;;2.80;1.33;;;27.00;54.10;;;;;;5053010;28;20479;-69
2022/06/22 11:50:33;;;;;;;2.60;1.07;;;27.10;54.60;;;;;;5052982;28;20393;-70
2022/06/22 11:53:12;;;;;;;2.47;2.37;;;26.90;54.30;;;;;;5052066;28;20414;-69
2022/06/22 11:55:44;;;;;;;1.73;1.40;;;26.50;53.70;;;;;;5073837;22;20585;-66
2022/06/22 11:58:41;;;;;;;1.40;1.30;;;26.30;53.40;;;;;;5051929;28;20406;-66
2022/06/22 12:01:29;;;;;;;1.37;1.10;;;26.30;54.70;;;;;;5051766;28;20512;-66
2022/06/22 12:03:57;;;;;;;1.43;1.20;;;26.50;54.20;;;;;;5051691;28;20854;-65
2022/06/22 12:06:40;;;;;;;3.77;1.53;;;26.70;54.30;;;;;;5051705;28;20762;-65
2022/06/22 12:09:06;;;;;;;2.00;1.10;;;26.30;54.50;;;;;;5051771;28;20506;-66
2022/06/22 12:11:47;;;;;;;1.20;1.10;;;26.00;54.40;;;;;;5051928;28;20397;-65
2022/06/22 12:17:54;;;;;;;3.30;1.23;;;26.30;53.50;;;;;;5052061;28;20467;-66
2022/06/22 12:20:57;;;;;;;1.20;1.10;;;26.50;52.70;;;;;;5051673;28;20392;-67
2022/06/22 12:23:28;;;;;;;3.43;1.27;;;26.50;53.40;;;;;;5051258;28;20778;-66
2022/06/22 12:26:00;;;;;;;1.10;1.00;;;26.70;53.50;;;;;;5051591;28;20432;-66
2022/06/22 12:28:45;;;;;;;1.77;1.00;;;26.60;52.30;;;;;;5051250;28;20972;-65
2022/06/22 12:31:13;;;;;;;1.13;1.03;;;26.70;53.10;;;;;;5051459;28;20500;-66
2022/06/22 12:34:13;;;;;;;1.27;1.17;;;26.80;52.70;;;;;;5051328;28;20407;-66
2022/06/22 12:36:45;;;;;;;1.90;1.30;;;27.10;51.50;;;;;;5032980;28;20769;-66
2022/06/22 12:39:33;;;;;;;1.80;1.00;;;26.80;52.50;;;;;;5051687;28;20415;-66
2022/06/22 12:42:36;;;;;;;1.30;1.17;;;26.70;52.80;;;;;;5051232;28;20405;-66
2022/06/22 12:45:19;;;;;;;7.57;1.37;;;27.00;53.10;;;;;;5051358;28;20425;-67
2022/06/22 12:48:03;;;;;;;1.20;1.00;;;27.00;53.20;;;;;;5051227;28;20684;-67
2022/06/22 12:51:07;;;;;;;2.53;1.20;;;26.70;53.00;;;;;;5051161;28;21004;-66
2022/06/22 12:53:47;;;;;;;0.93;0.80;;;26.80;52.70;;;;;;5046047;28;20436;-65
2022/06/22 12:56:17;;;;;;;1.63;1.10;;;27.00;53.00;;;;;;5050971;28;20932;-67
2022/06/22 12:58:47;;;;;;;3.90;1.20;;;27.20;52.90;;;;;;5051100;28;20400;-69
2022/06/22 13:01:13;;;;;;;1.50;1.40;;;27.30;53.20;;;;;;5051183;28;20752;-66
2022/06/22 13:04:02;;;;;;;1.20;1.10;;;27.20;53.20;;;;;;5050999;28;20448;-67
2022/06/22 13:06:30;;;;;;;1.30;1.20;;;26.90;52.30;;;;;;5049937;28;20268;-66
2022/06/22 13:08:57;;;;;;;1.93;1.00;;;27.10;52.40;;;;;;5051028;28;20447;-67
2022/06/22 13:11:24;;;;;;;2.50;1.10;;;27.30;51.10;;;;;;5050854;28;20452;-67
2022/06/22 13:14:15;;;;;;;1.20;1.10;;;27.30;51.90;;;;;;5050909;28;20787;-66
2022/06/22 13:16:47;;;;;;;2.47;1.17;;;27.30;52.40;;;;;;5050768;28;20961;-65
2022/06/22 13:19:20;;;;;;;1.50;1.10;;;27.40;52.70;;;;;;5050977;28;20405;-66
2022/06/22 13:22:02;;;;;;;1.77;1.20;;;27.60;52.90;;;;;;5053552;28;20787;-66
2022/06/22 13:24:49;;;;;;;1.10;0.90;;;27.70;52.90;;;;;;5054619;28;20430;-66
2022/06/22 13:27:34;;;;;;;1.30;0.90;;;27.50;52.30;;;;;;5055400;28;20396;-66
2022/06/22 13:30:18;;;;;;;1.17;0.90;;;27.60;52.40;;;;;;5054841;28;20416;-66
2022/06/22 13:32:59;;;;;;;1.97;1.03;;;27.80;52.00;;;;;;5054634;28;20966;-66
2022/06/22 13:35:37;;;;;;;1.10;1.00;;;27.80;51.60;;;;;;5054349;28;20741;-67
2022/06/22 13:38:28;;;;;;;4.03;1.10;;;27.50;50.70;;;;;;5054686;28;20435;-66
2022/06/22 13:41:18;;;;;;;1.53;0.97;;;27.40;52.00;;;;;;5054666;28;20404;-65
2022/06/22 13:44:16;;;;;;;4.83;1.13;;;27.40;51.40;;;;;;5054312;28;20486;-66
2022/06/22 13:47:19;;;;;;;1.10;1.00;;;27.60;51.00;;;;;;5054539;28;20397;-67
2022/06/22 13:50:31;;;;;;;1.53;1.10;;;27.80;51.20;;;;;;5054368;28;20446;-67
2022/06/22 13:53:04;;;;;;;1.70;1.20;;;27.40;50.90;;;;;;5055306;28;20850;-66
2022/06/22 13:55:51;;;;;;;1.30;1.10;;;27.20;50.80;;;;;;5054072;28;20813;-66
2022/06/22 13:58:27;;;;;;;1.00;0.80;;;27.10;51.30;;;;;;5054212;28;20404;-66
2022/06/22 14:01:16;;;;;;;1.80;1.00;;;27.40;51.40;;;;;;5054119;28;20533;-66
2022/06/22 14:03:54;;;;;;;1.90;0.90;;;27.10;51.30;;;;;;5053841;28;20403;-66
2022/06/22 14:06:23;;;;;;;3.23;1.43;;;27.40;51.00;;;;;;5054001;28;20401;-66
2022/06/22 14:09:22;;;;;;;1.13;1.03;;;27.40;50.70;;;;;;5053969;28;20495;-66
2022/06/22 14:12:10;;;;;;;1.33;1.23;;;27.30;50.90;;;;;;5054071;28;20411;-66